createdAt,value
2022-10-20T00:06:57.214Z,14.93
2022-10-20T00:12:01.293Z,11.63
2022-10-20T00:17:05.432Z,17.67
2022-10-20T00:22:08.147Z,17.77
2022-10-20T00:32:15.150Z,16.10
2022-10-20T00:42:21.857Z,19.88
2022-10-20T00:47:35.482Z,22.02
2022-10-20T00:52:39.838Z,18.77
2022-10-20T00:57:47.536Z,21.58
2022-10-20T01:02:51.235Z,20.92
2022-10-20T01:07:54.060Z,17.52
2022-10-20T01:13:04.091Z,19.27
2022-10-20T01:18:17.355Z,21.63
2022-10-20T01:23:44.859Z,21.40
2022-10-20T01:28:55.817Z,25.30
2022-10-20T01:34:07.396Z,21.55
2022-10-20T01:39:17.247Z,20.20
2022-10-20T01:44:25.417Z,19.92
2022-10-20T01:49:29.086Z,21.55
2022-10-20T01:54:32.440Z,22.15
2022-10-20T01:59:48.382Z,20.23
2022-10-20T02:05:21.527Z,23.05
2022-10-20T02:10:28.768Z,20.50
2022-10-20T02:15:37.991Z,19.77
2022-10-20T02:20:44.005Z,18.65
2022-10-20T02:25:49.795Z,19.75
2022-10-20T02:30:53.959Z,18.38
2022-10-20T02:35:59.010Z,16.52
2022-10-20T02:41:01.773Z,20.17
2022-10-20T02:46:06.166Z,21.10
2022-10-20T02:51:08.974Z,16.58
2022-10-20T02:56:12.402Z,18.83
2022-10-20T03:01:16.609Z,19.88
2022-10-20T03:06:19.376Z,18.92
2022-10-20T03:16:26.074Z,15.32
2022-10-20T03:21:28.818Z,18.75
2022-10-20T03:26:31.614Z,19.42
2022-10-20T03:31:35.774Z,15.10
2022-10-20T03:36:38.542Z,19.55
2022-10-20T03:41:41.314Z,19.58
2022-10-20T03:46:45.433Z,17.88
2022-10-20T03:51:48.149Z,17.50
2022-10-20T04:01:55.250Z,16.88
2022-10-20T04:06:58.082Z,19.27
2022-10-20T04:12:00.856Z,16.55
2022-10-20T04:17:05.049Z,17.05
2022-10-20T04:22:08.313Z,19.83
2022-10-20T04:27:11.138Z,18.38
2022-10-20T04:32:15.325Z,15.80
2022-10-20T04:37:18.088Z,15.68
2022-10-20T04:42:21.474Z,16.15
2022-10-20T04:47:25.885Z,18.45
2022-10-20T04:52:29.775Z,15.23
2022-10-20T04:57:32.644Z,16.38
2022-10-20T05:02:36.841Z,17.20
2022-10-20T05:07:39.903Z,16.98
2022-10-20T05:12:43.039Z,17.63
2022-10-20T05:17:47.246Z,19.75
2022-10-20T05:22:49.975Z,13.88
2022-10-20T05:27:52.828Z,15.15
2022-10-20T05:32:57.085Z,13.63
2022-10-20T05:37:59.963Z,17.85
2022-10-20T05:43:02.709Z,16.80
2022-10-20T05:48:07.218Z,15.77
2022-10-20T05:53:09.964Z,17.92
2022-10-20T05:58:12.689Z,15.50
2022-10-20T06:03:17.573Z,22.50
2022-10-20T06:08:21.760Z,16.60
2022-10-20T06:13:24.486Z,11.80
2022-10-20T06:18:28.551Z,17.92
2022-10-20T06:23:31.400Z,13.77
2022-10-20T06:28:35.689Z,14.82
2022-10-20T06:33:40.031Z,18.30
2022-10-20T06:38:53.887Z,14.77
2022-10-20T06:43:59.193Z,11.30
2022-10-20T06:49:04.553Z,13.70
2022-10-20T06:54:07.499Z,11.70
2022-10-20T06:59:10.308Z,12.10
2022-10-20T07:04:16.363Z,11.80
2022-10-20T07:09:20.714Z,9.30
2022-10-20T07:14:24.064Z,12.88
2022-10-20T07:19:28.311Z,12.00
2022-10-20T07:24:31.077Z,12.43
2022-10-20T07:34:42.846Z,10.93
2022-10-20T07:39:45.567Z,9.77
2022-10-20T07:49:52.362Z,9.98
2022-10-20T07:55:06.278Z,13.18
2022-10-20T08:00:18.045Z,15.23
2022-10-20T08:05:22.314Z,12.77
2022-10-20T08:10:25.099Z,12.18
2022-10-20T08:15:27.933Z,14.13
2022-10-20T08:20:40.896Z,13.38
2022-10-20T08:25:44.006Z,12.90
2022-10-20T08:30:46.757Z,16.30
2022-10-20T08:40:53.596Z,12.48
2022-10-20T08:45:56.482Z,16.48
2022-10-20T08:51:00.872Z,15.98
2022-10-20T08:56:03.645Z,12.77
2022-10-20T09:06:19.604Z,15.23
2022-10-20T09:11:25.214Z,12.07
2022-10-20T09:16:40.785Z,14.40
2022-10-20T09:21:50.657Z,15.05
2022-10-20T09:26:58.797Z,10.55
2022-10-20T09:32:16.708Z,13.25
2022-10-20T09:42:32.373Z,17.67
2022-10-20T09:47:36.205Z,12.52
2022-10-20T09:52:47.497Z,13.65
2022-10-20T09:57:50.598Z,13.70
2022-10-20T10:03:09.836Z,11.25
2022-10-20T10:08:16.749Z,14.70
2022-10-20T10:13:25.784Z,12.88
2022-10-20T10:18:29.213Z,15.60
2022-10-20T10:23:36.441Z,11.25
2022-10-20T10:28:41.907Z,13.60
2022-10-20T10:33:44.673Z,9.52
2022-10-20T10:38:49.101Z,10.95
2022-10-20T10:44:00.312Z,9.23
2022-10-20T10:49:20.973Z,8.13
2022-10-20T10:54:46.023Z,10.98
2022-10-20T10:59:52.837Z,9.40
2022-10-20T11:05:28.558Z,8.90
2022-10-20T11:10:43.982Z,9.88
2022-10-20T11:16:01.433Z,7.85
2022-10-20T11:21:40.545Z,8.43
2022-10-20T11:26:47.644Z,8.32
2022-10-20T11:31:54.802Z,11.48
2022-10-20T11:37:03.515Z,7.90
2022-10-20T11:42:22.234Z,11.18
2022-10-20T11:47:32.824Z,9.43
2022-10-20T11:53:00.449Z,9.32
2022-10-20T11:58:21.780Z,9.15
2022-10-20T12:03:46.112Z,9.50
2022-10-20T12:09:13.437Z,8.90
2022-10-20T12:14:24.661Z,8.65
2022-10-20T12:19:29.624Z,10.90
2022-10-20T12:24:35.838Z,9.57
2022-10-20T12:29:58.974Z,9.82
2022-10-20T12:35:03.647Z,10.38
2022-10-20T12:40:25.951Z,10.95
2022-10-20T12:45:38.601Z,9.75
2022-10-20T12:55:47.577Z,8.55
2022-10-20T13:01:12.594Z,8.60
2022-10-20T13:06:41.002Z,12.30
2022-10-20T13:11:53.761Z,10.00
2022-10-20T13:17:07.095Z,8.77
2022-10-20T13:22:35.484Z,11.95
2022-10-20T13:27:38.605Z,13.32
2022-10-20T13:33:11.001Z,14.27
2022-10-20T13:38:21.396Z,16.50
2022-10-20T13:43:32.873Z,14.88
2022-10-20T13:48:55.864Z,12.10
2022-10-20T13:54:01.811Z,13.18
2022-10-20T13:59:08.656Z,12.18
2022-10-20T14:04:26.155Z,13.40
2022-10-20T14:09:28.903Z,12.13
2022-10-20T14:24:43.724Z,13.80
2022-10-20T14:29:47.274Z,13.27
2022-10-20T14:34:59.981Z,14.40
2022-10-20T14:45:07.463Z,11.85
2022-10-20T14:50:21.608Z,12.77
2022-10-20T14:55:31.920Z,16.33
2022-10-20T15:00:36.985Z,14.70
2022-10-20T15:05:44.387Z,16.30
2022-10-20T15:10:47.546Z,12.88
2022-10-20T15:15:50.726Z,19.52
2022-10-20T15:20:56.222Z,20.23
2022-10-20T15:26:02.847Z,18.70
2022-10-20T15:31:08.475Z,18.42
2022-10-20T15:36:15.873Z,20.00
2022-10-20T15:41:19.838Z,19.30
2022-10-20T15:46:23.223Z,23.10
2022-10-20T15:51:30.225Z,30.23
2022-10-20T15:56:33.690Z,25.42
2022-10-20T16:01:37.276Z,30.20
2022-10-20T16:06:42.219Z,29.70
2022-10-20T16:11:45.105Z,30.23
2022-10-20T16:16:47.955Z,29.33
2022-10-20T16:21:52.198Z,31.27
2022-10-20T16:26:55.073Z,26.63
2022-10-20T16:31:58.915Z,29.00
2022-10-20T16:37:03.148Z,33.70
2022-10-20T16:42:06.131Z,31.08
2022-10-20T16:47:10.866Z,36.40
2022-10-20T16:52:15.071Z,37.63
2022-10-20T16:57:17.940Z,36.95
2022-10-20T17:02:20.842Z,34.88
2022-10-20T17:07:25.087Z,36.70
2022-10-20T17:12:28.065Z,43.17
2022-10-20T17:22:35.119Z,47.75
2022-10-20T17:27:38.171Z,41.22
2022-10-20T17:32:43.063Z,39.47
2022-10-20T17:37:47.257Z,39.03
2022-10-20T17:42:50.133Z,38.85
2022-10-20T17:47:53.271Z,36.58
2022-10-20T17:52:57.410Z,40.25
2022-10-20T17:58:04.891Z,38.65
2022-10-20T18:03:08.576Z,39.22
2022-10-20T18:08:12.720Z,37.30
2022-10-20T18:13:15.614Z,35.17
2022-10-20T18:18:18.421Z,35.05
2022-10-20T18:23:22.638Z,34.72
2022-10-20T18:28:25.458Z,33.90
2022-10-20T18:33:28.235Z,30.88
2022-10-20T18:43:35.764Z,37.40
2022-10-20T18:48:40.315Z,36.17
2022-10-20T18:53:45.983Z,40.38
2022-10-20T18:58:50.853Z,38.15
2022-10-20T19:03:55.558Z,35.70
2022-10-20T19:09:01.881Z,36.92
2022-10-20T19:14:05.448Z,36.15
2022-10-20T19:19:09.511Z,33.50
2022-10-20T19:24:17.501Z,34.92
2022-10-20T19:29:21.875Z,37.92
2022-10-20T19:34:27.231Z,35.80
2022-10-20T19:39:34.224Z,35.08
2022-10-20T19:44:37.729Z,36.40
2022-10-20T19:49:41.014Z,38.53
2022-10-20T19:54:45.145Z,39.35
2022-10-20T19:59:47.897Z,37.92
2022-10-20T20:09:54.587Z,38.90
2022-10-20T20:14:57.488Z,45.15
2022-10-20T20:20:00.221Z,48.28
2022-10-20T20:30:08.340Z,47.30
2022-10-20T20:35:11.072Z,46.92
2022-10-20T20:45:18.333Z,55.65
2022-10-20T20:50:21.064Z,47.55
2022-10-20T21:00:27.903Z,46.38
2022-10-20T21:05:30.726Z,51.13
2022-10-20T21:10:35.942Z,49.65
2022-10-20T21:15:38.753Z,49.10
2022-10-20T21:20:41.523Z,45.55
2022-10-20T21:25:50.493Z,52.75
2022-10-20T21:30:54.455Z,53.72
2022-10-20T21:36:01.426Z,56.20
2022-10-20T21:41:07.380Z,53.38
2022-10-20T21:46:12.966Z,57.60
2022-10-20T21:51:17.810Z,55.72
2022-10-20T21:56:21.921Z,50.63
2022-10-20T22:01:25.966Z,48.65
2022-10-20T22:06:29.157Z,51.05
2022-10-20T22:11:35.608Z,54.70
2022-10-20T22:16:40.598Z,53.40
2022-10-20T22:21:45.638Z,63.97
2022-10-20T22:26:51.539Z,58.42
2022-10-20T22:31:54.340Z,68.90
2022-10-20T22:42:01.697Z,50.55
2022-10-20T22:47:04.493Z,56.50
2022-10-20T22:52:07.262Z,58.38
2022-10-20T23:02:13.989Z,63.58
2022-10-20T23:07:16.794Z,68.68
2022-10-20T23:12:20.945Z,74.80
2022-10-20T23:17:24.533Z,64.47
2022-10-20T23:22:27.383Z,64.85
2022-10-20T23:27:33.840Z,57.70
2022-10-20T23:32:36.647Z,60.42
2022-10-20T23:37:39.978Z,54.20
2022-10-20T23:42:44.381Z,61.95
2022-10-20T23:47:47.163Z,57.95
2022-10-20T23:52:49.934Z,58.45
2022-10-20T23:57:54.136Z,56.00
